createdAt,value
2019-02-17T00:00:26.997Z,62.03
2019-02-17T00:02:53.003Z,61.82
2019-02-17T00:05:18.872Z,61.89
2019-02-17T00:07:44.801Z,62.18
2019-02-17T00:10:10.780Z,61.91
2019-02-17T00:12:39.758Z,62.53
2019-02-17T00:15:07.496Z,62.30
2019-02-17T00:17:33.395Z,62.50
2019-02-17T00:20:04.818Z,62.52
2019-02-17T00:22:30.758Z,62.08
2019-02-17T00:24:56.639Z,62.00
2019-02-17T00:27:22.501Z,62.10
2019-02-17T00:29:48.435Z,62.15
2019-02-17T00:32:14.326Z,62.20
2019-02-17T00:34:40.186Z,62.18
2019-02-17T00:37:06.105Z,62.59
2019-02-17T00:39:31.979Z,62.75
2019-02-17T00:41:57.861Z,62.63
2019-02-17T00:44:24.020Z,62.22
2019-02-17T00:46:49.914Z,62.42
2019-02-17T00:49:16.081Z,62.42
2019-02-17T00:51:43.714Z,62.11
2019-02-17T00:54:09.834Z,62.25
2019-02-17T00:56:35.940Z,62.28
2019-02-17T00:59:10.197Z,62.49
2019-02-17T01:01:31.721Z,62.62
2019-02-17T01:03:57.738Z,62.62
2019-02-17T01:06:23.665Z,61.89
2019-02-17T01:08:49.533Z,61.89
2019-02-17T01:11:15.586Z,62.36
2019-02-17T01:13:41.445Z,62.49
2019-02-17T01:16:07.327Z,62.27
2019-02-17T01:18:33.258Z,62.78
2019-02-17T01:20:59.360Z,62.43
2019-02-17T01:23:25.348Z,62.52
2019-02-17T01:25:51.350Z,62.70
2019-02-17T01:28:17.374Z,62.26
2019-02-17T01:30:43.411Z,62.54
2019-02-17T01:33:09.482Z,62.96
2019-02-17T01:35:35.387Z,63.12
2019-02-17T01:38:01.343Z,63.12
2019-02-17T01:40:27.340Z,63.11
2019-02-17T01:42:53.227Z,63.03
2019-02-17T01:45:19.098Z,62.88
2019-02-17T01:47:44.991Z,62.77
2019-02-17T01:50:11.055Z,62.64
2019-02-17T01:52:37.027Z,62.46
2019-02-17T01:55:04.937Z,62.71
2019-02-17T01:57:30.912Z,62.78
2019-02-17T01:59:56.841Z,62.71
2019-02-17T02:02:22.726Z,62.89
2019-02-17T02:04:48.592Z,62.94
2019-02-17T02:07:14.686Z,62.53
2019-02-17T02:09:40.601Z,62.23
2019-02-17T02:12:06.547Z,62.21
2019-02-17T02:14:32.527Z,62.23
2019-02-17T02:16:58.527Z,62.73
2019-02-17T02:19:24.713Z,62.75
2019-02-17T02:21:50.613Z,62.73
2019-02-17T02:24:20.575Z,62.78
2019-02-17T02:26:46.475Z,62.93
2019-02-17T02:29:12.427Z,62.51
2019-02-17T02:31:38.354Z,62.33
2019-02-17T02:34:04.409Z,62.57
2019-02-17T02:36:30.299Z,63.00
2019-02-17T02:38:56.219Z,63.04
2019-02-17T02:41:22.292Z,62.87
2019-02-17T02:43:48.301Z,62.78
2019-02-17T02:46:14.290Z,62.85
2019-02-17T02:48:40.273Z,62.85
2019-02-17T02:51:06.303Z,62.93
2019-02-17T02:53:32.285Z,63.07
2019-02-17T02:55:58.305Z,63.21
2019-02-17T02:58:24.180Z,63.10
2019-02-17T03:00:50.043Z,62.83
2019-02-17T03:03:16.179Z,62.67
2019-02-17T03:05:43.968Z,63.14
2019-02-17T03:08:10.044Z,63.12
2019-02-17T03:10:35.934Z,63.26
2019-02-17T03:13:01.823Z,63.42
2019-02-17T03:15:27.756Z,63.45
2019-02-17T03:17:53.710Z,63.60
2019-02-17T03:20:19.597Z,63.50
2019-02-17T03:22:45.488Z,63.15
2019-02-17T03:25:15.006Z,62.78
2019-02-17T03:27:40.993Z,62.52
2019-02-17T03:30:08.889Z,62.46
2019-02-17T03:32:34.812Z,62.25
2019-02-17T03:35:00.672Z,61.97
2019-02-17T03:37:26.648Z,61.93
2019-02-17T03:39:52.716Z,61.36
2019-02-17T03:42:18.785Z,61.33
2019-02-17T03:44:44.784Z,61.56
2019-02-17T03:47:10.668Z,61.57
2019-02-17T03:49:36.518Z,61.78
2019-02-17T03:52:02.546Z,62.43
2019-02-17T03:54:28.433Z,62.51
2019-02-17T03:56:54.338Z,62.65
2019-02-17T03:59:20.426Z,62.56
2019-02-17T04:01:46.475Z,62.47
2019-02-17T04:04:12.373Z,62.24
2019-02-17T04:06:38.427Z,62.88
2019-02-17T04:09:05.419Z,63.02
2019-02-17T04:11:31.294Z,63.05
2019-02-17T04:13:57.472Z,62.21
2019-02-17T04:16:23.523Z,61.98
2019-02-17T04:18:49.401Z,61.98
2019-02-17T04:21:15.282Z,62.13
2019-02-17T04:23:41.329Z,62.34
2019-02-17T04:26:07.295Z,62.18
2019-02-17T04:28:33.273Z,62.44
2019-02-17T04:30:59.358Z,62.97
2019-02-17T04:33:25.380Z,63.19
2019-02-17T04:35:51.273Z,62.97
2019-02-17T04:38:17.270Z,62.23
2019-02-17T04:40:43.265Z,61.61
2019-02-17T04:43:09.249Z,61.64
2019-02-17T04:45:35.172Z,61.64
2019-02-17T04:48:01.207Z,61.73
2019-02-17T04:50:27.264Z,61.51
2019-02-17T04:52:53.268Z,61.25
2019-02-17T04:55:19.270Z,61.53
2019-02-17T04:57:45.260Z,61.47
2019-02-17T05:00:11.360Z,61.47
2019-02-17T05:02:37.265Z,61.59
2019-02-17T05:05:04.604Z,62.00
2019-02-17T05:07:30.583Z,62.23
2019-02-17T05:09:56.504Z,61.98
2019-02-17T05:12:22.473Z,61.77
2019-02-17T05:14:48.438Z,61.50
2019-02-17T05:17:14.390Z,61.44
2019-02-17T05:19:40.265Z,61.18
2019-02-17T05:22:06.338Z,61.13
2019-02-17T05:24:32.392Z,61.52
2019-02-17T05:27:01.979Z,61.74
2019-02-17T05:29:27.978Z,62.18
2019-02-17T05:31:53.892Z,61.28
2019-02-17T05:34:19.885Z,61.45
2019-02-17T05:36:46.014Z,61.30
2019-02-17T05:39:12.007Z,61.32
2019-02-17T05:41:37.930Z,61.61
2019-02-17T05:44:03.827Z,61.21
2019-02-17T05:46:29.822Z,61.04
2019-02-17T05:48:55.721Z,61.26
2019-02-17T05:51:21.808Z,61.11
2019-02-17T05:53:47.727Z,61.18
2019-02-17T05:56:13.620Z,61.45
2019-02-17T05:58:39.544Z,61.65
2019-02-17T06:01:07.337Z,61.67
2019-02-17T06:03:33.319Z,62.08
2019-02-17T06:05:59.223Z,62.43
2019-02-17T06:08:25.204Z,62.59
2019-02-17T06:10:51.232Z,62.65
2019-02-17T06:13:17.222Z,62.75
2019-02-17T06:15:43.209Z,62.82
2019-02-17T06:18:09.280Z,62.46
2019-02-17T06:20:35.179Z,62.64
2019-02-17T06:23:01.136Z,62.41
2019-02-17T06:25:27.160Z,62.23
2019-02-17T06:27:53.101Z,62.34
2019-02-17T06:30:22.371Z,61.71
2019-02-17T06:32:48.429Z,61.62
2019-02-17T06:35:14.310Z,61.63
2019-02-17T06:37:40.197Z,61.26
2019-02-17T06:40:06.918Z,61.00
2019-02-17T06:42:32.915Z,61.32
2019-02-17T06:44:58.813Z,60.88
2019-02-17T06:47:26.657Z,61.00
2019-02-17T06:49:52.641Z,61.05
2019-02-17T06:52:18.518Z,61.20
2019-02-17T06:54:46.641Z,61.38
2019-02-17T06:57:14.530Z,62.11
2019-02-17T06:59:40.540Z,62.09
2019-02-17T07:02:06.623Z,62.29
2019-02-17T07:04:37.384Z,62.39
2019-02-17T07:07:03.954Z,61.91
2019-02-17T07:09:29.807Z,60.96
2019-02-17T07:11:56.904Z,60.60
2019-02-17T07:14:23.099Z,60.48
2019-02-17T07:16:48.972Z,60.22
2019-02-17T07:19:15.044Z,60.08
2019-02-17T07:21:40.961Z,59.50
2019-02-17T07:24:06.952Z,58.62
2019-02-17T07:26:32.862Z,58.38
2019-02-17T07:28:58.723Z,57.96
2019-02-17T07:31:34.358Z,57.96
2019-02-17T07:33:52.629Z,57.51
2019-02-17T07:36:18.497Z,57.51
2019-02-17T07:38:44.413Z,57.03
2019-02-17T07:41:10.309Z,57.11
2019-02-17T07:43:36.331Z,57.03
2019-02-17T07:46:02.410Z,57.16
2019-02-17T07:48:28.319Z,56.64
2019-02-17T07:50:56.724Z,56.26
2019-02-17T07:53:22.171Z,55.81
2019-02-17T07:55:48.274Z,56.10
2019-02-17T07:58:14.385Z,56.00
2019-02-17T08:00:40.281Z,55.57
2019-02-17T08:03:06.195Z,55.17
2019-02-17T08:05:32.116Z,54.72
2019-02-17T08:07:58.087Z,54.66
2019-02-17T08:10:24.038Z,54.81
2019-02-17T08:12:50.147Z,54.77
2019-02-17T08:15:16.174Z,54.24
2019-02-17T08:17:42.074Z,54.12
2019-02-17T08:20:10.933Z,54.34
2019-02-17T08:22:36.897Z,53.49
2019-02-17T08:25:04.637Z,53.04
2019-02-17T08:27:30.620Z,52.93
2019-02-17T08:29:56.500Z,52.75
2019-02-17T08:32:22.435Z,52.05
2019-02-17T08:34:48.290Z,51.75
2019-02-17T08:37:14.216Z,50.47
2019-02-17T08:39:40.105Z,50.00
2019-02-17T08:42:06.110Z,49.67
2019-02-17T08:44:32.077Z,49.46
2019-02-17T08:46:59.955Z,49.96
2019-02-17T08:49:25.846Z,49.81
2019-02-17T08:51:51.744Z,49.71
2019-02-17T08:54:17.602Z,49.10
2019-02-17T08:56:43.569Z,49.33
2019-02-17T08:59:09.603Z,48.73
2019-02-17T09:01:35.501Z,48.89
2019-02-17T09:04:01.749Z,49.03
2019-02-17T09:06:27.655Z,47.58
2019-02-17T09:08:53.529Z,47.62
2019-02-17T09:11:21.317Z,45.84
2019-02-17T09:13:47.199Z,46.70
2019-02-17T09:16:13.104Z,46.00
2019-02-17T09:18:39.086Z,45.50
2019-02-17T09:21:05.030Z,45.76
2019-02-17T09:23:30.916Z,45.51
2019-02-17T09:25:56.821Z,44.77
2019-02-17T09:28:22.836Z,45.03
2019-02-17T09:30:48.695Z,44.86
2019-02-17T09:33:18.727Z,44.72
2019-02-17T09:35:44.830Z,45.41
2019-02-17T09:38:10.716Z,44.13
2019-02-17T09:40:36.671Z,42.71
2019-02-17T09:43:02.761Z,42.78
2019-02-17T09:45:28.621Z,44.01
2019-02-17T09:47:54.483Z,43.38
2019-02-17T09:50:20.562Z,42.65
2019-02-17T09:52:46.431Z,44.13
2019-02-17T09:55:12.407Z,42.66
2019-02-17T09:57:38.939Z,42.44
2019-02-17T10:00:08.280Z,41.22
2019-02-17T10:02:34.248Z,41.20
2019-02-17T10:05:00.401Z,41.34
2019-02-17T10:07:26.379Z,40.79
2019-02-17T10:09:52.246Z,41.00
2019-02-17T10:12:18.131Z,41.02
2019-02-17T10:14:44.111Z,40.88
2019-02-17T10:17:10.004Z,40.92
2019-02-17T10:19:35.881Z,41.28
2019-02-17T10:22:01.859Z,41.13
2019-02-17T10:24:28.093Z,40.60
2019-02-17T10:26:53.963Z,41.09
2019-02-17T10:29:19.956Z,41.13
2019-02-17T10:31:45.980Z,41.18
2019-02-17T10:34:12.009Z,40.99
2019-02-17T10:36:37.900Z,41.29
2019-02-17T10:39:05.087Z,40.86
2019-02-17T10:41:31.095Z,40.32
2019-02-17T10:43:57.048Z,40.51
2019-02-17T10:46:22.976Z,40.81
2019-02-17T10:48:48.964Z,40.59
2019-02-17T10:51:14.824Z,41.11
2019-02-17T10:53:40.878Z,40.94
2019-02-17T10:56:06.768Z,41.06
2019-02-17T10:58:32.671Z,41.35
2019-02-17T11:00:58.703Z,41.36
2019-02-17T11:03:24.700Z,41.73
2019-02-17T11:05:53.723Z,41.72
2019-02-17T11:08:19.607Z,41.72
2019-02-17T11:10:45.695Z,41.79
2019-02-17T11:13:11.639Z,41.76
2019-02-17T11:15:37.833Z,41.87
2019-02-17T11:18:03.796Z,42.38
2019-02-17T11:20:29.691Z,42.29
2019-02-17T11:22:55.769Z,42.42
2019-02-17T11:25:21.667Z,42.04
2019-02-17T11:27:47.655Z,42.24
2019-02-17T11:30:18.917Z,42.52
2019-02-17T11:32:44.835Z,42.32
2019-02-17T11:35:10.943Z,42.33
2019-02-17T11:37:36.925Z,42.38
2019-02-17T11:40:05.651Z,42.33
2019-02-17T11:42:31.494Z,41.75
2019-02-17T11:44:57.584Z,41.61
2019-02-17T11:47:23.499Z,41.31
2019-02-17T11:49:49.385Z,41.17
2019-02-17T11:52:15.344Z,41.83
2019-02-17T11:54:41.264Z,41.65
2019-02-17T11:57:07.180Z,41.90
2019-02-17T11:59:33.054Z,41.37
2019-02-17T12:01:58.959Z,41.04
2019-02-17T12:04:24.875Z,40.98
2019-02-17T12:06:50.766Z,40.75
2019-02-17T12:09:16.778Z,40.68
2019-02-17T12:11:42.641Z,40.60
2019-02-17T12:14:08.510Z,40.01
2019-02-17T12:16:36.957Z,39.34
2019-02-17T12:19:02.404Z,37.67
2019-02-17T12:21:30.359Z,34.89
2019-02-17T12:24:14.968Z,36.30
2019-02-17T12:26:42.904Z,36.15
2019-02-17T12:29:13.444Z,35.47
2019-02-17T12:31:39.818Z,33.70
2019-02-17T12:34:05.818Z,32.14
2019-02-17T12:36:34.947Z,28.23
2019-02-17T12:39:01.107Z,28.23
2019-02-17T12:41:27.077Z,24.41
2019-02-17T12:43:53.050Z,24.84
2019-02-17T12:46:18.982Z,26.00
2019-02-17T12:48:44.940Z,24.90
2019-02-17T12:51:11.035Z,24.92
2019-02-17T12:53:36.954Z,26.95
2019-02-17T12:56:03.035Z,31.48
2019-02-17T12:58:30.205Z,27.99
2019-02-17T13:00:56.262Z,20.95
2019-02-17T13:03:28.482Z,20.98
2019-02-17T13:05:50.099Z,20.72
2019-02-17T13:08:16.125Z,21.59
2019-02-17T13:10:42.003Z,18.58
2019-02-17T13:13:07.911Z,18.30
2019-02-17T13:15:33.771Z,17.45
2019-02-17T13:17:59.770Z,16.63
2019-02-17T13:20:25.746Z,18.78
2019-02-17T13:22:51.685Z,18.57
2019-02-17T13:25:17.567Z,16.63
2019-02-17T13:27:43.665Z,18.19
2019-02-17T13:30:21.413Z,17.78
2019-02-17T13:32:47.500Z,16.95
2019-02-17T13:35:13.510Z,17.80
2019-02-17T13:37:39.624Z,20.51
2019-02-17T13:40:08.942Z,18.66
2019-02-17T13:42:34.808Z,18.57
2019-02-17T13:45:00.727Z,16.81
2019-02-17T13:47:26.629Z,17.30
2019-02-17T13:49:52.620Z,21.46
2019-02-17T13:52:18.593Z,19.29
2019-02-17T13:54:44.466Z,18.67
2019-02-17T13:57:10.568Z,18.74
2019-02-17T13:59:36.544Z,18.98
2019-02-17T14:02:02.407Z,18.16
2019-02-17T14:04:28.313Z,18.09
2019-02-17T14:06:54.587Z,16.28
2019-02-17T14:09:20.511Z,17.76
2019-02-17T14:11:46.411Z,16.44
2019-02-17T14:14:12.324Z,16.88
2019-02-17T14:16:38.300Z,19.92
2019-02-17T14:19:04.243Z,17.66
2019-02-17T14:21:30.110Z,16.72
2019-02-17T14:23:56.095Z,18.91
2019-02-17T14:26:22.091Z,18.05
2019-02-17T14:28:48.032Z,20.48
2019-02-17T14:31:13.999Z,17.97
2019-02-17T14:33:39.870Z,19.67
2019-02-17T14:36:05.770Z,18.95
2019-02-17T14:38:31.723Z,21.52
2019-02-17T14:40:57.693Z,18.10
2019-02-17T14:43:23.742Z,17.92
2019-02-17T14:45:49.616Z,19.78
2019-02-17T14:48:15.474Z,16.79
2019-02-17T14:50:41.463Z,18.03
2019-02-17T14:53:07.366Z,19.68
2019-02-17T14:55:33.418Z,19.77
2019-02-17T14:58:05.422Z,21.66
2019-02-17T15:00:27.152Z,19.73
2019-02-17T15:02:53.040Z,18.95
2019-02-17T15:05:19.024Z,19.10
2019-02-17T15:07:44.916Z,19.48
2019-02-17T15:10:12.279Z,18.62
2019-02-17T15:12:38.346Z,20.85
2019-02-17T15:15:09.308Z,20.13
2019-02-17T15:17:35.459Z,21.56
2019-02-17T15:20:01.491Z,20.94
2019-02-17T15:22:27.479Z,20.16
2019-02-17T15:24:53.325Z,19.87
2019-02-17T15:27:19.248Z,20.16
2019-02-17T15:29:45.218Z,20.89
2019-02-17T15:32:11.124Z,21.49
2019-02-17T15:34:37.061Z,24.74
2019-02-17T15:37:03.112Z,29.59
2019-02-17T15:39:29.106Z,32.18
2019-02-17T15:41:55.054Z,33.21
2019-02-17T15:44:21.047Z,33.07
2019-02-17T15:46:46.908Z,33.55
2019-02-17T15:49:12.815Z,34.71
2019-02-17T15:51:38.703Z,34.86
2019-02-17T15:54:04.698Z,35.34
2019-02-17T15:56:30.794Z,35.68
2019-02-17T15:58:56.746Z,35.82
2019-02-17T16:01:22.845Z,36.17
2019-02-17T16:03:48.825Z,36.17
2019-02-17T16:06:14.701Z,37.02
2019-02-17T16:08:40.706Z,37.19
2019-02-17T16:11:06.637Z,37.31
2019-02-17T16:13:32.499Z,37.66
2019-02-17T16:15:58.376Z,37.86
2019-02-17T16:18:24.433Z,38.08
2019-02-17T16:20:50.313Z,38.53
2019-02-17T16:23:16.263Z,38.41
2019-02-17T16:25:42.212Z,39.12
2019-02-17T16:28:08.094Z,39.05
2019-02-17T16:30:34.003Z,39.63
2019-02-17T16:32:59.869Z,40.05
2019-02-17T16:35:25.864Z,40.53
2019-02-17T16:37:51.775Z,40.63
2019-02-17T16:40:17.782Z,41.15
2019-02-17T16:42:43.835Z,41.83
2019-02-17T16:45:12.328Z,42.53
2019-02-17T16:47:38.192Z,41.78
2019-02-17T16:50:31.627Z,43.33
2019-02-17T16:52:59.512Z,44.79
2019-02-17T16:55:25.384Z,45.88
2019-02-17T16:57:51.613Z,47.12
2019-02-17T17:00:22.737Z,46.12
2019-02-17T17:02:49.836Z,45.44
2019-02-17T17:05:15.855Z,46.22
2019-02-17T17:07:41.737Z,46.81
2019-02-17T17:10:08.513Z,46.82
2019-02-17T17:12:34.639Z,47.81
2019-02-17T17:15:00.494Z,48.72
2019-02-17T17:17:26.469Z,48.71
2019-02-17T17:19:52.388Z,48.93
2019-02-17T17:22:18.383Z,49.66
2019-02-17T17:24:44.303Z,50.07
2019-02-17T17:27:10.377Z,50.66
2019-02-17T17:29:36.253Z,50.75
2019-02-17T17:32:02.356Z,50.62
2019-02-17T17:34:28.253Z,51.28
2019-02-17T17:36:54.184Z,52.06
2019-02-17T17:39:20.153Z,51.89
2019-02-17T17:41:46.057Z,51.88
2019-02-17T17:44:12.185Z,52.03
2019-02-17T17:46:38.054Z,50.98
2019-02-17T17:49:03.954Z,51.06
2019-02-17T17:51:30.061Z,52.38
2019-02-17T17:53:56.362Z,52.28
2019-02-17T17:56:22.245Z,52.89
2019-02-17T17:58:48.336Z,52.16
2019-02-17T18:01:14.205Z,52.11
2019-02-17T18:03:40.130Z,52.17
2019-02-17T18:06:06.146Z,52.73
2019-02-17T18:08:32.103Z,52.81
2019-02-17T18:10:58.038Z,53.07
2019-02-17T18:13:24.017Z,53.12
2019-02-17T18:15:49.998Z,53.12
2019-02-17T18:18:17.127Z,53.27
2019-02-17T18:20:43.008Z,53.27
2019-02-17T18:23:09.002Z,54.00
2019-02-17T18:25:34.879Z,54.12
2019-02-17T18:28:00.846Z,53.52
2019-02-17T18:30:26.836Z,54.10
2019-02-17T18:32:52.729Z,54.32
2019-02-17T18:35:20.496Z,53.54
2019-02-17T18:37:46.655Z,53.58
2019-02-17T18:40:16.216Z,53.20
2019-02-17T18:42:42.468Z,53.45
2019-02-17T18:45:10.730Z,53.58
2019-02-17T18:47:39.525Z,53.58
2019-02-17T18:50:11.282Z,53.85
2019-02-17T18:52:37.489Z,53.50
2019-02-17T18:55:05.656Z,53.59
2019-02-17T18:57:33.169Z,54.11
2019-02-17T19:00:01.520Z,54.29
2019-02-17T19:02:27.550Z,53.85
2019-02-17T19:04:55.588Z,53.87
2019-02-17T19:07:21.458Z,53.76
2019-02-17T19:09:47.489Z,53.38
2019-02-17T19:12:13.575Z,53.02
2019-02-17T19:14:42.435Z,53.39
2019-02-17T19:17:08.405Z,53.25
2019-02-17T19:19:34.343Z,53.18
2019-02-17T19:22:02.471Z,53.41
2019-02-17T19:24:28.491Z,53.51
2019-02-17T19:26:54.514Z,53.80
2019-02-17T19:29:20.449Z,53.80
2019-02-17T19:31:46.547Z,53.80
2019-02-17T19:34:12.459Z,54.20
2019-02-17T19:36:38.565Z,54.38
2019-02-17T19:39:04.639Z,54.41
2019-02-17T19:41:30.541Z,54.33
2019-02-17T19:43:56.616Z,54.58
2019-02-17T19:46:22.493Z,54.60
2019-02-17T19:48:48.370Z,54.99
2019-02-17T19:51:14.403Z,54.76
2019-02-17T19:53:40.330Z,54.87
2019-02-17T19:56:07.566Z,54.65
2019-02-17T19:58:33.624Z,54.77
2019-02-17T20:00:59.744Z,54.90
2019-02-17T20:03:30.576Z,55.09
2019-02-17T20:05:58.369Z,54.90
2019-02-17T20:08:24.370Z,55.39
2019-02-17T20:10:50.249Z,55.37
2019-02-17T20:13:16.342Z,56.01
2019-02-17T20:15:42.222Z,55.60
2019-02-17T20:18:08.153Z,55.88
2019-02-17T20:20:34.054Z,55.35
2019-02-17T20:22:59.922Z,55.35
2019-02-17T20:25:25.896Z,55.69
2019-02-17T20:27:51.998Z,55.64
2019-02-17T20:30:18.020Z,55.27
2019-02-17T20:32:44.143Z,55.43
2019-02-17T20:35:10.315Z,55.81
2019-02-17T20:37:36.474Z,55.61
2019-02-17T20:40:06.107Z,55.55
2019-02-17T20:42:32.745Z,55.61
2019-02-17T20:44:58.645Z,55.75
2019-02-17T20:47:27.911Z,55.27
2019-02-17T20:49:53.871Z,55.33
2019-02-17T20:52:19.726Z,55.80
2019-02-17T20:54:46.303Z,55.57
2019-02-17T20:57:12.319Z,55.57
2019-02-17T20:59:38.274Z,55.30
2019-02-17T21:02:04.611Z,54.79
2019-02-17T21:04:30.643Z,54.91
2019-02-17T21:06:56.480Z,54.97
2019-02-17T21:09:22.815Z,55.09
2019-02-17T21:11:49.118Z,55.35
2019-02-17T21:14:15.562Z,55.61
2019-02-17T21:16:42.007Z,55.47
2019-02-17T21:19:08.779Z,55.79
2019-02-17T21:21:35.790Z,55.87
2019-02-17T21:24:02.600Z,55.73
2019-02-17T21:26:29.108Z,55.90
2019-02-17T21:28:55.552Z,55.28
2019-02-17T21:31:21.897Z,55.77
2019-02-17T21:33:48.297Z,55.61
2019-02-17T21:36:22.901Z,55.57
2019-02-17T21:38:43.017Z,55.96
2019-02-17T21:41:10.045Z,56.23
2019-02-17T21:43:36.180Z,56.55
2019-02-17T21:46:02.225Z,56.36
2019-02-17T21:48:28.249Z,56.33
2019-02-17T21:50:54.215Z,56.68
2019-02-17T21:53:21.014Z,56.71
2019-02-17T21:55:47.261Z,56.87
2019-02-17T21:58:13.175Z,57.04
2019-02-17T22:00:39.181Z,57.24
2019-02-17T22:03:05.305Z,57.24
2019-02-17T22:05:31.415Z,57.30
2019-02-17T22:07:57.261Z,56.92
2019-02-17T22:10:23.128Z,57.07
2019-02-17T22:12:51.302Z,56.94
2019-02-17T22:15:21.721Z,56.79
2019-02-17T22:17:47.811Z,56.63
2019-02-17T22:20:13.922Z,56.92
2019-02-17T22:22:39.900Z,56.46
2019-02-17T22:25:07.140Z,56.47
2019-02-17T22:27:33.091Z,56.89
2019-02-17T22:29:58.982Z,56.55
2019-02-17T22:32:25.007Z,56.96
2019-02-17T22:34:50.891Z,57.26
2019-02-17T22:37:16.762Z,57.15
2019-02-17T22:39:42.662Z,57.51
2019-02-17T22:42:08.533Z,57.31
2019-02-17T22:44:34.618Z,57.71
2019-02-17T22:47:00.580Z,58.27
2019-02-17T22:49:29.964Z,58.50
2019-02-17T22:51:55.938Z,58.69
2019-02-17T22:54:21.864Z,58.25
2019-02-17T22:56:47.730Z,58.11
2019-02-17T22:59:13.756Z,57.88
2019-02-17T23:01:39.729Z,57.60
2019-02-17T23:04:05.820Z,57.53
2019-02-17T23:06:31.721Z,57.63
2019-02-17T23:08:57.741Z,57.58
2019-02-17T23:11:23.812Z,57.85
2019-02-17T23:13:50.036Z,57.85
2019-02-17T23:16:16.019Z,57.64
2019-02-17T23:18:42.018Z,57.81
2019-02-17T23:21:08.016Z,57.59
2019-02-17T23:23:33.986Z,57.74
2019-02-17T23:25:59.906Z,57.93
2019-02-17T23:28:25.986Z,58.11
2019-02-17T23:30:51.949Z,58.31
2019-02-17T23:33:17.995Z,58.69
2019-02-17T23:35:43.889Z,58.53
2019-02-17T23:38:09.907Z,58.67
2019-02-17T23:40:35.920Z,59.14
2019-02-17T23:43:02.030Z,59.10
2019-02-17T23:45:27.976Z,59.55
2019-02-17T23:47:53.982Z,59.61
2019-02-17T23:50:19.978Z,59.45
2019-02-17T23:52:45.890Z,59.40
2019-02-17T23:55:12.063Z,59.36
2019-02-17T23:57:38.558Z,59.34
